Trinity, North Carolina
Current Conditions -  °F | °C
As of 8:54 AM on Thursday 27 Nov 2014 (Local Time) from KGSO Reporting Station
Light Rain Light Rain  
Wind Chill:   Ceiling: 500
Heat Index:   Visibility: 5mi
Dew Point:   Wind: 3mph
Humidity: 93%   Direction: NA
Pressure: 30.01"   Gusts: NA
Location:  35.89°N, 79.99°W
Report Text: KGSO 271354Z VRB03KT 5SM -RA BR BKN005 BKN018 OVC039 05/04 A3001 RMK AO2 RAB11 SLP165 P0001 T00500039
Loading
Personal Weather Stations






























Interactive Weather Map New forecast layout! Learn more

10-Day Weather Forecast

Advertisements
Track Severe Weather on mobile